Time;durP1;ratioP1;P1;durP2;ratioP2;P2;SDS_P1;SDS_P2;PMS_P1;PMS_P2;Temp;Humidity;BMP_temperature;BMP_pressure;BME280_temperature;BME280_humidity;BME280_pressure;Samples;Min_cycle;Max_cycle;Signal;HPM_P1;HPM_P2
2023/07/02 00:00:39;;;;;;;1.40;1.10;;;;;;;;;;5096941;28;20099;-21
2023/07/02 00:03:05;;;;;;;1.27;1.27;;;;;;;;;;5096722;28;20024;-21
2023/07/02 00:05:31;;;;;;;1.38;1.27;;;;;;;;;;5096583;28;20028;-20
2023/07/02 00:07:57;;;;;;;1.10;1.00;;;;;;;;;;5095579;28;20063;-20
2023/07/02 00:10:23;;;;;;;1.27;1.27;;;;;;;;;;5096456;28;20097;-18
2023/07/02 00:12:49;;;;;;;1.00;0.95;;;;;;;;;;5096285;28;20020;-20
2023/07/02 00:15:15;;;;;;;0.98;0.98;;;;;;;;;;5096693;28;20027;-20
2023/07/02 00:17:42;;;;;;;1.30;1.20;;;;;;;;;;5096382;28;20052;-20
2023/07/02 00:20:14;;;;;;;1.60;1.30;;;;;;;;;;5096587;28;20347;-22
2023/07/02 00:22:45;;;;;;;1.45;1.35;;;;;;;;;;5096481;28;20113;-20
2023/07/02 00:25:11;;;;;;;;;;;;;;;;;;5096942;28;20028;-19
2023/07/02 00:27:38;;;;;;;1.20;1.15;;;;;;;;;;5096417;28;20384;-19
2023/07/02 00:30:04;;;;;;;1.55;1.35;;;;;;;;;;5096384;28;20092;-17
2023/07/02 00:32:30;;;;;;;1.38;1.27;;;;;;;;;;5096170;28;20066;-18
2023/07/02 00:34:56;;;;;;;1.45;1.35;;;;;;;;;;5096293;28;20031;-21
2023/07/02 00:37:23;;;;;;;1.33;1.30;;;;;;;;;;5095111;28;20393;-17
2023/07/02 00:39:49;;;;;;;1.52;1.42;;;;;;;;;;5096212;28;20012;-19
2023/07/02 00:42:16;;;;;;;2.38;1.42;;;;;;;;;;5095825;28;20121;-23
2023/07/02 00:44:43;;;;;;;1.88;1.30;;;;;;;;;;5096121;28;20121;-20
2023/07/02 00:47:09;;;;;;;2.05;1.85;;;;;;;;;;5095784;28;20020;-23
2023/07/02 00:49:36;;;;;;;1.42;1.33;;;;;;;;;;5096012;28;20089;-19
2023/07/02 00:52:02;;;;;;;3.10;1.40;;;;;;;;;;5095586;28;20020;-19
2023/07/02 00:54:29;;;;;;;1.50;1.40;;;;;;;;;;5095353;28;20048;-17
2023/07/02 00:56:55;;;;;;;1.30;1.20;;;;;;;;;;5095608;28;20028;-19
2023/07/02 00:59:21;;;;;;;2.38;1.70;;;;;;;;;;5095567;28;20074;-22
2023/07/02 01:01:51;;;;;;;1.55;1.45;;;;;;;;;;5095457;28;20348;-19
2023/07/02 01:04:18;;;;;;;1.30;1.20;;;;;;;;;;5095498;28;20089;-20
2023/07/02 01:06:45;;;;;;;1.45;1.35;;;;;;;;;;5095651;28;20028;-20
2023/07/02 01:09:11;;;;;;;1.67;1.58;;;;;;;;;;5095698;28;20446;-18
2023/07/02 01:11:39;;;;;;;2.17;1.33;;;;;;;;;;5095418;28;20024;-20
2023/07/02 01:14:08;;;;;;;1.65;1.55;;;;;;;;;;5095340;28;20024;-19
2023/07/02 01:16:36;;;;;;;1.38;1.27;;;;;;;;;;5095525;28;20439;-20
2023/07/02 01:19:03;;;;;;;1.83;1.60;;;;;;;;;;5095239;28;20024;-21
2023/07/02 01:21:29;;;;;;;1.50;1.40;;;;;;;;;;5095155;28;20024;-23
2023/07/02 01:23:55;;;;;;;1.92;1.40;;;;;;;;;;5095332;28;20030;-21
2023/07/02 01:26:21;;;;;;;1.88;1.58;;;;;;;;;;5095165;28;20020;-23
2023/07/02 01:28:48;;;;;;;1.60;1.50;;;;;;;;;;5095103;28;20099;-20
2023/07/02 01:31:14;;;;;;;1.88;1.40;;;;;;;;;;5095314;28;20046;-20
2023/07/02 01:33:42;;;;;;;1.98;1.52;;;;;;;;;;5095129;28;20035;-20
2023/07/02 01:36:08;;;;;;;1.90;1.80;;;;;;;;;;5095235;28;20406;-20
2023/07/02 01:38:34;;;;;;;1.60;1.50;;;;;;;;;;5094043;28;20055;-19
2023/07/02 01:41:00;;;;;;;1.67;1.58;;;;;;;;;;5095496;28;20116;-17
2023/07/02 01:43:26;;;;;;;1.90;1.52;;;;;;;;;;5095082;28;20028;-17
2023/07/02 01:45:53;;;;;;;2.30;1.50;;;;;;;;;;5095393;28;20031;-21
2023/07/02 01:48:19;;;;;;;1.55;1.45;;;;;;;;;;5094664;28;20020;-20
2023/07/02 01:50:45;;;;;;;2.25;2.05;;;;;;;;;;5094763;28;20038;-21
2023/07/02 01:53:11;;;;;;;1.90;1.80;;;;;;;;;;5094433;28;20047;-19
2023/07/02 01:55:37;;;;;;;1.60;1.50;;;;;;;;;;5095019;28;20320;-23
2023/07/02 01:58:03;;;;;;;2.15;2.00;;;;;;;;;;5094686;28;20051;-18
2023/07/02 02:00:30;;;;;;;2.03;1.73;;;;;;;;;;5095018;28;20052;-21
2023/07/02 02:02:56;;;;;;;2.53;1.70;;;;;;;;;;5094607;28;20413;-18
2023/07/02 02:05:22;;;;;;;2.20;2.08;;;;;;;;;;5094915;28;20116;-20
2023/07/02 02:07:48;;;;;;;2.10;1.90;;;;;;;;;;5094532;28;20020;-17
2023/07/02 02:10:14;;;;;;;1.98;1.80;;;;;;;;;;5094902;28;20028;-22
2023/07/02 02:12:40;;;;;;;1.98;1.88;;;;;;;;;;5094625;28;20443;-22
2023/07/02 02:15:07;;;;;;;1.55;1.42;;;;;;;;;;5094878;28;20391;-19
2023/07/02 02:17:35;;;;;;;2.03;1.92;;;;;;;;;;5094458;28;20066;-19
2023/07/02 02:20:01;;;;;;;1.77;1.67;;;;;;;;;;5094813;28;20066;-21
2023/07/02 02:22:27;;;;;;;2.13;1.90;;;;;;;;;;5094397;28;20036;-22
2023/07/02 02:24:53;;;;;;;4.05;1.80;;;;;;;;;;5094761;28;20384;-22
2023/07/02 02:27:19;;;;;;;1.90;1.80;;;;;;;;;;5094507;28;20047;-19
2023/07/02 02:29:45;;;;;;;2.17;1.88;;;;;;;;;;5094450;28;20056;-20
2023/07/02 02:32:11;;;;;;;2.58;2.38;;;;;;;;;;5094359;28;20093;-18
2023/07/02 02:34:38;;;;;;;2.40;2.20;;;;;;;;;;5094320;28;20020;-19
2023/07/02 02:37:04;;;;;;;2.22;2.03;;;;;;;;;;5095134;28;20028;-19
2023/07/02 02:39:30;;;;;;;2.42;2.28;;;;;;;;;;5094581;28;20024;-20
2023/07/02 02:41:56;;;;;;;1.98;1.88;;;;;;;;;;5094274;28;20108;-22
2023/07/02 02:44:22;;;;;;;1.95;1.85;;;;;;;;;;5094323;28;20028;-22
2023/07/02 02:46:48;;;;;;;1.83;1.73;;;;;;;;;;5094190;28;20119;-20
2023/07/02 02:49:14;;;;;;;3.75;2.30;;;;;;;;;;5094276;28;20114;-17
2023/07/02 02:51:40;;;;;;;2.35;2.15;;;;;;;;;;5094228;28;20028;-21
2023/07/02 02:54:07;;;;;;;2.08;1.98;;;;;;;;;;5093879;28;20081;-20
2023/07/02 02:56:33;;;;;;;2.25;2.08;;;;;;;;;;5094458;28;20024;-20
2023/07/02 02:58:59;;;;;;;2.17;2.08;;;;;;;;;;5094737;28;20447;-20
2023/07/02 03:01:28;;;;;;;2.42;2.22;;;;;;;;;;5095376;28;20039;-19
2023/07/02 03:03:54;;;;;;;2.10;1.90;;;;;;;;;;5097717;28;20032;-20
2023/07/02 03:06:20;;;;;;;2.53;2.33;;;;;;;;;;5098070;28;20043;-18
2023/07/02 03:08:46;;;;;;;2.60;2.40;;;;;;;;;;5097956;28;20462;-23
2023/07/02 03:11:12;;;;;;;1.92;1.83;;;;;;;;;;5097943;28;20032;-19
2023/07/02 03:13:38;;;;;;;2.80;2.60;;;;;;;;;;5097467;28;20032;-18
2023/07/02 03:16:05;;;;;;;5.22;4.85;;;;;;;;;;5096663;28;20020;-19
2023/07/02 03:18:31;;;;;;;2.67;2.47;;;;;;;;;;5097543;28;20035;-19
2023/07/02 03:20:57;;;;;;;2.80;2.60;;;;;;;;;;5097780;28;20095;-18
2023/07/02 03:23:23;;;;;;;3.50;2.38;;;;;;;;;;5097332;28;20496;-20
2023/07/02 03:25:49;;;;;;;2.65;2.45;;;;;;;;;;5097410;28;20034;-21
2023/07/02 03:28:16;;;;;;;2.83;2.63;;;;;;;;;;5097378;28;20028;-20
2023/07/02 03:30:42;;;;;;;2.80;2.60;;;;;;;;;;5097257;28;20336;-18
2023/07/02 03:33:09;;;;;;;2.70;2.45;;;;;;;;;;5097086;28;20023;-17
2023/07/02 03:35:36;;;;;;;2.67;2.47;;;;;;;;;;5097187;28;20032;-21
2023/07/02 03:38:02;;;;;;;4.47;2.53;;;;;;;;;;5097116;28;20028;-20
2023/07/02 03:40:28;;;;;;;2.45;2.33;;;;;;;;;;5097695;28;20032;-22
2023/07/02 03:42:54;;;;;;;2.78;2.58;;;;;;;;;;5097283;28;20020;-17
2023/07/02 03:45:20;;;;;;;2.88;2.67;;;;;;;;;;5097017;28;20039;-21
2023/07/02 03:47:47;;;;;;;2.92;2.72;;;;;;;;;;5097509;28;20028;-20
2023/07/02 03:50:13;;;;;;;2.60;2.40;;;;;;;;;;5097226;28;20028;-19
2023/07/02 03:52:39;;;;;;;2.95;2.65;;;;;;;;;;5096516;28;20039;-21
2023/07/02 03:55:05;;;;;;;2.40;2.20;;;;;;;;;;5097146;28;20024;-20
2023/07/02 03:57:31;;;;;;;3.13;2.88;;;;;;;;;;5096800;28;20098;-19
2023/07/02 03:59:58;;;;;;;2.72;2.53;;;;;;;;;;5096749;28;20016;-19
2023/07/02 04:02:24;;;;;;;3.15;2.85;;;;;;;;;;5096727;28;20455;-20
2023/07/02 04:04:50;;;;;;;2.83;2.63;;;;;;;;;;5096646;28;20039;-19
2023/07/02 04:07:16;;;;;;;3.25;2.95;;;;;;;;;;5096854;28;20111;-18
2023/07/02 04:09:42;;;;;;;2.88;2.67;;;;;;;;;;5096773;28;20418;-20
2023/07/02 04:12:08;;;;;;;3.33;3.03;;;;;;;;;;5096454;28;20103;-21
2023/07/02 04:14:34;;;;;;;3.17;2.88;;;;;;;;;;5096637;28;20370;-20
2023/07/02 04:17:03;;;;;;;2.40;2.20;;;;;;;;;;5096364;28;20035;-20
2023/07/02 04:19:29;;;;;;;3.30;2.90;;;;;;;;;;5096331;28;20020;-24
2023/07/02 04:21:55;;;;;;;2.95;2.67;;;;;;;;;;5096266;28;20107;-20
2023/07/02 04:24:22;;;;;;;2.85;2.65;;;;;;;;;;5096506;28;20024;-20
2023/07/02 04:26:48;;;;;;;3.70;3.08;;;;;;;;;;5096222;28;20027;-20
2023/07/02 04:29:14;;;;;;;3.72;3.15;;;;;;;;;;5096177;28;20093;-20
2023/07/02 04:31:40;;;;;;;3.25;2.85;;;;;;;;;;5096094;28;20042;-20
2023/07/02 04:34:06;;;;;;;2.85;2.53;;;;;;;;;;5096224;28;20038;-19
2023/07/02 04:36:32;;;;;;;3.05;2.85;;;;;;;;;;5096015;28;20024;-19
2023/07/02 04:38:58;;;;;;;3.58;3.25;;;;;;;;;;5096041;28;20066;-18
2023/07/02 04:41:24;;;;;;;3.70;3.40;;;;;;;;;;5095017;28;20024;-20
2023/07/02 04:43:51;;;;;;;3.33;3.00;;;;;;;;;;5095821;28;20015;-20
2023/07/02 04:46:18;;;;;;;3.47;3.20;;;;;;;;;;5096115;28;20024;-21
2023/07/02 04:48:44;;;;;;;3.03;2.80;;;;;;;;;;5096056;28;20028;-20
2023/07/02 04:51:10;;;;;;;3.13;2.83;;;;;;;;;;5096047;28;20355;-19
2023/07/02 04:53:37;;;;;;;3.25;3.00;;;;;;;;;;5095542;28;20382;-18
2023/07/02 04:56:03;;;;;;;3.22;2.92;;;;;;;;;;5094755;28;20028;-19
2023/07/02 04:58:29;;;;;;;3.10;2.90;;;;;;;;;;5095654;28;20047;-20
2023/07/02 05:00:56;;;;;;;2.80;2.60;;;;;;;;;;5095622;28;20027;-20
2023/07/02 05:03:22;;;;;;;3.72;3.42;;;;;;;;;;5095489;28;20032;-21
2023/07/02 05:05:48;;;;;;;3.58;3.30;;;;;;;;;;5095506;28;20020;-19
2023/07/02 05:08:14;;;;;;;3.35;3.05;;;;;;;;;;5095469;28;20104;-20
2023/07/02 05:10:40;;;;;;;3.38;3.10;;;;;;;;;;5095666;28;20383;-18
2023/07/02 05:13:07;;;;;;;3.60;3.33;;;;;;;;;;5095282;28;20028;-24
2023/07/02 05:15:33;;;;;;;3.08;2.78;;;;;;;;;;5095576;28;20028;-22
2023/07/02 05:17:59;;;;;;;3.40;3.10;;;;;;;;;;5095830;28;20416;-22
2023/07/02 05:20:26;;;;;;;5.05;2.80;;;;;;;;;;5095210;28;20063;-20
2023/07/02 05:22:52;;;;;;;3.35;3.13;;;;;;;;;;5095033;28;20017;-19
2023/07/02 05:25:18;;;;;;;2.80;2.60;;;;;;;;;;5095087;28;20455;-20
2023/07/02 05:27:45;;;;;;;4.00;3.45;;;;;;;;;;5095128;28;20028;-18
2023/07/02 05:30:11;;;;;;;3.83;3.53;;;;;;;;;;5095107;28;20024;-17
2023/07/02 05:32:39;;;;;;;3.00;2.80;;;;;;;;;;5094896;28;20091;-20
2023/07/02 05:35:05;;;;;;;5.15;3.55;;;;;;;;;;5095295;28;20026;-20
2023/07/02 05:37:31;;;;;;;2.88;2.67;;;;;;;;;;5095757;28;20082;-21
2023/07/02 05:39:57;;;;;;;3.60;3.30;;;;;;;;;;5094996;28;20425;-20
2023/07/02 05:42:23;;;;;;;3.08;2.88;;;;;;;;;;5094849;28;20073;-20
2023/07/02 05:44:50;;;;;;;3.20;3.00;;;;;;;;;;5095112;28;20017;-19
2023/07/02 05:47:16;;;;;;;3.30;3.05;;;;;;;;;;5094882;28;20028;-19
2023/07/02 05:49:43;;;;;;;3.28;3.03;;;;;;;;;;5094824;28;20063;-20
2023/07/02 05:52:09;;;;;;;3.58;3.28;;;;;;;;;;5094754;28;20036;-19
2023/07/02 05:54:35;;;;;;;2.88;2.67;;;;;;;;;;5094533;28;20101;-20
2023/07/02 05:57:01;;;;;;;3.22;3.03;;;;;;;;;;5094802;28;20024;-19
2023/07/02 05:59:27;;;;;;;3.58;3.28;;;;;;;;;;5095011;28;20344;-20
2023/07/02 06:01:53;;;;;;;3.67;3.38;;;;;;;;;;5094581;28;20036;-20
2023/07/02 06:04:20;;;;;;;3.20;2.97;;;;;;;;;;5094970;28;20024;-22
2023/07/02 06:06:46;;;;;;;4.07;3.70;;;;;;;;;;5094939;28;20032;-20
2023/07/02 06:09:12;;;;;;;3.75;3.40;;;;;;;;;;5094882;28;20028;-19
2023/07/02 06:11:38;;;;;;;3.50;3.20;;;;;;;;;;5094617;28;20052;-22
2023/07/02 06:14:04;;;;;;;3.40;3.17;;;;;;;;;;5094502;28;20056;-18
2023/07/02 06:16:30;;;;;;;3.83;3.28;;;;;;;;;;5095373;28;20331;-20
2023/07/02 06:18:56;;;;;;;3.55;3.25;;;;;;;;;;5094550;28;20020;-19
2023/07/02 06:21:23;;;;;;;3.50;3.20;;;;;;;;;;5093581;28;20024;-24
2023/07/02 06:23:49;;;;;;;3.22;3.03;;;;;;;;;;5094393;28;20028;-19
2023/07/02 06:26:15;;;;;;;3.55;3.25;;;;;;;;;;5094500;28;20459;-20
2023/07/02 06:28:41;;;;;;;4.13;3.75;;;;;;;;;;5094454;28;20115;-25
2023/07/02 06:31:07;;;;;;;3.65;3.42;;;;;;;;;;5094694;28;20347;-21
2023/07/02 06:33:33;;;;;;;3.25;3.05;;;;;;;;;;5094426;28;20046;-19
2023/07/02 06:35:59;;;;;;;3.80;3.47;;;;;;;;;;5096058;28;20020;-23
2023/07/02 06:38:26;;;;;;;3.78;3.38;;;;;;;;;;5098325;28;20031;-19
2023/07/02 06:40:52;;;;;;;3.88;3.40;;;;;;;;;;5098144;28;20411;-21
2023/07/02 06:43:18;;;;;;;3.53;3.25;;;;;;;;;;5098148;28;20100;-23
2023/07/02 06:45:44;;;;;;;3.67;3.38;;;;;;;;;;5098164;28;20458;-20
2023/07/02 06:48:10;;;;;;;3.92;3.58;;;;;;;;;;5098163;28;20031;-18
2023/07/02 06:50:36;;;;;;;4.18;3.78;;;;;;;;;;5098349;28;20093;-20
2023/07/02 06:53:02;;;;;;;4.07;3.78;;;;;;;;;;5097708;28;20044;-20
2023/07/02 06:55:29;;;;;;;3.50;3.20;;;;;;;;;;5098077;28;20101;-18
2023/07/02 06:57:55;;;;;;;3.65;3.35;;;;;;;;;;5099049;28;20326;-20
2023/07/02 07:00:21;;;;;;;3.38;3.13;;;;;;;;;;5097899;28;20457;-19
2023/07/02 07:02:47;;;;;;;3.60;3.35;;;;;;;;;;5098026;28;20093;-20
2023/07/02 07:05:13;;;;;;;3.47;3.17;;;;;;;;;;5097878;28;20035;-20
2023/07/02 07:07:39;;;;;;;3.70;3.40;;;;;;;;;;5098046;28;20024;-20
2023/07/02 07:10:06;;;;;;;3.97;3.67;;;;;;;;;;5097744;28;20031;-20
2023/07/02 07:12:33;;;;;;;3.60;3.30;;;;;;;;;;5097833;28;20031;-19
2023/07/02 07:14:59;;;;;;;3.53;3.22;;;;;;;;;;5097858;28;20016;-17
2023/07/02 07:17:25;;;;;;;9.73;4.20;;;;;;;;;;5097852;28;20043;-19
2023/07/02 07:19:51;;;;;;;3.38;3.15;;;;;;;;;;5097570;28;20100;-20
2023/07/02 07:22:17;;;;;;;3.58;3.30;;;;;;;;;;5097843;28;20097;-20
2023/07/02 07:24:43;;;;;;;3.65;3.33;;;;;;;;;;5097464;28;20028;-17
2023/07/02 07:27:09;;;;;;;3.95;3.35;;;;;;;;;;5097678;28;20372;-20
2023/07/02 07:29:36;;;;;;;3.83;3.53;;;;;;;;;;5097335;28;20052;-18
2023/07/02 07:32:02;;;;;;;2.83;2.63;;;;;;;;;;5097225;28;20466;-20
2023/07/02 07:34:28;;;;;;;3.63;3.40;;;;;;;;;;5097465;28;20043;-19
2023/07/02 07:36:54;;;;;;;3.17;2.97;;;;;;;;;;5097229;28;20149;-19
2023/07/02 07:39:21;;;;;;;4.28;3.92;;;;;;;;;;5097175;28;20088;-19
2023/07/02 07:41:48;;;;;;;3.47;3.17;;;;;;;;;;5096956;28;20110;-19
2023/07/02 07:44:14;;;;;;;3.88;3.25;;;;;;;;;;5096988;28;20046;-19
2023/07/02 07:46:40;;;;;;;3.35;3.15;;;;;;;;;;5097260;28;20020;-18
2023/07/02 07:49:07;;;;;;;3.15;2.95;;;;;;;;;;5097244;28;20028;-26
2023/07/02 07:51:35;;;;;;;3.78;3.47;;;;;;;;;;5096946;28;20024;-19
2023/07/02 07:54:01;;;;;;;3.60;3.05;;;;;;;;;;5096692;28;20173;-19
2023/07/02 07:56:27;;;;;;;2.88;2.67;;;;;;;;;;5096810;28;20104;-20
2023/07/02 07:58:54;;;;;;;3.20;3.00;;;;;;;;;;5096823;28;20367;-21
2023/07/02 08:01:20;;;;;;;3.33;3.03;;;;;;;;;;5096989;28;20032;-26
2023/07/02 08:03:46;;;;;;;3.38;3.17;;;;;;;;;;5096933;28;20099;-23
2023/07/02 08:06:12;;;;;;;3.42;3.13;;;;;;;;;;5096697;28;20028;-20
2023/07/02 08:08:38;;;;;;;3.65;3.35;;;;;;;;;;5096900;28;20028;-20
2023/07/02 08:11:05;;;;;;;3.60;3.30;;;;;;;;;;5096555;28;20458;-19
2023/07/02 08:13:31;;;;;;;3.58;3.30;;;;;;;;;;5096320;28;20028;-21
2023/07/02 08:15:57;;;;;;;3.30;3.03;;;;;;;;;;5096441;28;20024;-19
2023/07/02 08:18:23;;;;;;;3.65;3.35;;;;;;;;;;5096370;28;20024;-17
2023/07/02 08:20:49;;;;;;;4.80;3.05;;;;;;;;;;5096629;28;20019;-22
2023/07/02 08:23:15;;;;;;;3.70;3.38;;;;;;;;;;5096240;28;20031;-20
2023/07/02 08:25:42;;;;;;;3.53;3.33;;;;;;;;;;5096297;28;20024;-19
2023/07/02 08:28:08;;;;;;;3.40;3.20;;;;;;;;;;5096483;28;20329;-20
2023/07/02 08:30:34;;;;;;;4.00;3.70;;;;;;;;;;5096160;28;20028;-21
2023/07/02 08:33:00;;;;;;;3.45;3.25;;;;;;;;;;5095978;28;20024;-20
2023/07/02 08:35:26;;;;;;;3.78;2.95;;;;;;;;;;5095123;28;20024;-20
2023/07/02 08:37:52;;;;;;;3.67;3.45;;;;;;;;;;5096333;28;20031;-20
2023/07/02 08:40:19;;;;;;;3.65;3.35;;;;;;;;;;5095063;28;20331;-21
2023/07/02 08:42:49;;;;;;;3.40;3.20;;;;;;;;;;5096164;28;20077;-19
2023/07/02 08:45:19;;;;;;;3.40;3.20;;;;;;;;;;5096159;28;20020;-21
2023/07/02 08:47:46;;;;;;;3.63;3.33;;;;;;;;;;5096159;28;20107;-17
2023/07/02 08:50:13;;;;;;;3.25;2.97;;;;;;;;;;5095800;28;20077;-17
2023/07/02 08:52:39;;;;;;;3.42;3.22;;;;;;;;;;5095742;28;20103;-20
2023/07/02 08:55:05;;;;;;;3.63;3.33;;;;;;;;;;5096187;28;20089;-17
2023/07/02 08:57:31;;;;;;;3.85;3.55;;;;;;;;;;5095476;28;20028;-20
2023/07/02 08:59:58;;;;;;;3.63;3.33;;;;;;;;;;5095091;28;20020;-20
2023/07/02 09:02:30;;;;;;;4.07;3.78;;;;;;;;;;5095507;28;20024;-17
2023/07/02 09:05:04;;;;;;;3.58;3.38;;;;;;;;;;5095806;28;20046;-19
2023/07/02 09:07:30;;;;;;;3.45;3.15;;;;;;;;;;5096085;28;20024;-20
2023/07/02 09:09:56;;;;;;;3.00;2.80;;;;;;;;;;5095441;28;20024;-22
2023/07/02 09:12:32;;;;;;;3.88;3.58;;;;;;;;;;5095280;28;20050;-19
2023/07/02 09:15:03;;;;;;;3.85;3.55;;;;;;;;;;5094421;28;20051;-19
2023/07/02 09:17:30;;;;;;;3.28;3.08;;;;;;;;;;5095674;28;20024;-18
2023/07/02 09:19:56;;;;;;;3.53;3.28;;;;;;;;;;5095272;28;20030;-19
2023/07/02 09:22:22;;;;;;;4.05;3.65;;;;;;;;;;5096015;28;20028;-19
2023/07/02 09:24:57;;;;;;;3.78;3.47;;;;;;;;;;5095690;28;20104;-18
2023/07/02 09:27:33;;;;;;;3.25;3.00;;;;;;;;;;5095186;28;20035;-19
2023/07/02 09:30:05;;;;;;;3.35;3.13;;;;;;;;;;5095420;28;20032;-19
2023/07/02 09:32:32;;;;;;;3.60;3.40;;;;;;;;;;5095343;28;20036;-21
2023/07/02 09:34:58;;;;;;;3.65;3.45;;;;;;;;;;5095000;28;20024;-20
2023/07/02 09:37:25;;;;;;;3.55;3.35;;;;;;;;;;5095047;28;20016;-19
2023/07/02 09:39:52;;;;;;;3.45;3.22;;;;;;;;;;5095228;28;20028;-18
2023/07/02 09:42:19;;;;;;;3.58;3.28;;;;;;;;;;5095153;28;20042;-20
2023/07/02 09:44:46;;;;;;;3.70;3.40;;;;;;;;;;5095160;28;20075;-20
2023/07/02 09:47:13;;;;;;;3.80;3.50;;;;;;;;;;5094884;28;20091;-21
2023/07/02 09:49:40;;;;;;;3.72;3.42;;;;;;;;;;5094850;28;20473;-19
2023/07/02 09:52:07;;;;;;;4.07;3.78;;;;;;;;;;5094756;28;20024;-20
2023/07/02 09:54:34;;;;;;;3.25;3.05;;;;;;;;;;5094558;28;20069;-19
2023/07/02 09:57:00;;;;;;;3.95;3.65;;;;;;;;;;5094764;28;20459;-18
2023/07/02 09:59:27;;;;;;;3.75;3.45;;;;;;;;;;5094746;28;20028;-18
2023/07/02 10:01:53;;;;;;;4.22;3.92;;;;;;;;;;5094893;28;20057;-22
2023/07/02 10:04:20;;;;;;;4.25;3.85;;;;;;;;;;5094689;28;20359;-20
2023/07/02 10:06:51;;;;;;;3.60;3.30;;;;;;;;;;5094974;28;20353;-21
2023/07/02 10:09:20;;;;;;;5.13;2.90;;;;;;;;;;5095140;28;20031;-18
2023/07/02 10:11:47;;;;;;;3.92;3.63;;;;;;;;;;5099021;28;20028;-20
2023/07/02 10:14:13;;;;;;;3.72;3.47;;;;;;;;;;5098970;28;20024;-20
2023/07/02 10:16:55;;;;;;;4.20;3.90;;;;;;;;;;5098772;28;20082;-21
2023/07/02 10:19:21;;;;;;;3.65;3.35;;;;;;;;;;5098731;28;20024;-20
2023/07/02 10:21:50;;;;;;;3.60;3.30;;;;;;;;;;5098567;28;20024;-21
2023/07/02 10:24:17;;;;;;;4.07;3.78;;;;;;;;;;5098562;28;20039;-23
2023/07/02 10:26:54;;;;;;;3.97;3.67;;;;;;;;;;5098834;28;20028;-19
2023/07/02 10:29:21;;;;;;;3.55;3.33;;;;;;;;;;5098862;28;20116;-18
2023/07/02 10:31:50;;;;;;;3.75;3.45;;;;;;;;;;5098656;28;20085;-17
2023/07/02 10:34:17;;;;;;;4.57;4.28;;;;;;;;;;5098357;28;20035;-20
2023/07/02 10:36:43;;;;;;;3.90;3.60;;;;;;;;;;5098350;28;20020;-21
2023/07/02 10:39:09;;;;;;;4.20;3.90;;;;;;;;;;5098408;28;20498;-24
2023/07/02 10:41:35;;;;;;;4.13;3.83;;;;;;;;;;5098231;28;20054;-20
2023/07/02 10:44:11;;;;;;;4.20;3.90;;;;;;;;;;5098165;28;20040;-20
2023/07/02 10:46:46;;;;;;;4.18;3.83;;;;;;;;;;5098459;28;20324;-20
2023/07/02 10:49:13;;;;;;;3.97;3.67;;;;;;;;;;5098221;28;20028;-20
2023/07/02 10:51:39;;;;;;;3.85;3.55;;;;;;;;;;5098035;28;20031;-20
2023/07/02 10:54:05;;;;;;;4.32;4.03;;;;;;;;;;5097798;28;20412;-19
2023/07/02 10:56:32;;;;;;;4.55;4.15;;;;;;;;;;5098013;28;20059;-19
2023/07/02 10:58:59;;;;;;;4.10;3.80;;;;;;;;;;5098225;28;20378;-20
2023/07/02 11:01:29;;;;;;;4.00;3.70;;;;;;;;;;5097964;28;20021;-18
2023/07/02 11:03:56;;;;;;;3.92;3.63;;;;;;;;;;5098088;28;20363;-19
2023/07/02 11:06:22;;;;;;;4.22;3.63;;;;;;;;;;5097841;28;20024;-22
2023/07/02 11:08:48;;;;;;;4.28;3.92;;;;;;;;;;5097779;28;20089;-19
2023/07/02 11:11:15;;;;;;;3.97;3.58;;;;;;;;;;5097734;28;20081;-18
2023/07/02 11:13:49;;;;;;;3.55;3.33;;;;;;;;;;5097524;28;20073;-18
2023/07/02 11:16:19;;;;;;;3.13;2.92;;;;;;;;;;5097546;28;20036;-23
2023/07/02 11:18:45;;;;;;;3.92;3.63;;;;;;;;;;5097564;28;20028;-20
2023/07/02 11:21:11;;;;;;;3.90;3.50;;;;;;;;;;5096789;28;20470;-20
2023/07/02 11:23:37;;;;;;;4.13;3.83;;;;;;;;;;5097478;28;20107;-19
2023/07/02 11:26:04;;;;;;;4.10;3.80;;;;;;;;;;5098022;28;20107;-19
2023/07/02 11:28:34;;;;;;;4.20;3.90;;;;;;;;;;5097385;28;20447;-19
2023/07/02 11:31:02;;;;;;;3.72;3.42;;;;;;;;;;5097367;28;20028;-19
2023/07/02 11:33:38;;;;;;;3.95;3.65;;;;;;;;;;5097417;28;20047;-19
2023/07/02 11:36:05;;;;;;;4.20;3.90;;;;;;;;;;5097802;28;20038;-20
2023/07/02 11:38:31;;;;;;;4.20;3.90;;;;;;;;;;5096296;28;20342;-21
2023/07/02 11:40:57;;;;;;;3.78;3.47;;;;;;;;;;5097109;28;20474;-20
2023/07/02 11:43:23;;;;;;;3.90;3.65;;;;;;;;;;5097052;28;20031;-20
2023/07/02 11:45:49;;;;;;;4.45;4.15;;;;;;;;;;5097078;28;20036;-20
2023/07/02 11:48:15;;;;;;;4.18;3.88;;;;;;;;;;5097277;28;20031;-19
2023/07/02 11:50:41;;;;;;;4.22;3.92;;;;;;;;;;5097527;28;20075;-18
2023/07/02 11:53:08;;;;;;;4.32;4.03;;;;;;;;;;5096648;28;20119;-20
2023/07/02 11:55:34;;;;;;;5.47;4.97;;;;;;;;;;5097223;28;20020;-22
2023/07/02 11:58:00;;;;;;;4.40;4.10;;;;;;;;;;5097109;28;20021;-19
2023/07/02 12:00:26;;;;;;;3.83;3.53;;;;;;;;;;5097058;28;20020;-22
2023/07/02 12:02:52;;;;;;;4.03;3.72;;;;;;;;;;5096733;28;20154;-18
2023/07/02 12:05:19;;;;;;;4.72;4.43;;;;;;;;;;5096719;28;20020;-19
2023/07/02 12:07:45;;;;;;;3.85;3.58;;;;;;;;;;5097794;28;20032;-22
2023/07/02 12:10:11;;;;;;;4.55;4.25;;;;;;;;;;5096609;28;20039;-19
2023/07/02 12:12:37;;;;;;;4.30;4.00;;;;;;;;;;5096976;28;20031;-20
2023/07/02 12:15:03;;;;;;;4.70;4.30;;;;;;;;;;5096985;28;20457;-19
2023/07/02 12:17:30;;;;;;;4.13;3.83;;;;;;;;;;5096485;28;20012;-19
2023/07/02 12:19:56;;;;;;;4.57;4.18;;;;;;;;;;5096425;28;20464;-22
2023/07/02 12:22:23;;;;;;;4.80;4.40;;;;;;;;;;5096585;28;20035;-23
2023/07/02 12:24:55;;;;;;;5.75;4.10;;;;;;;;;;5096574;28;20043;-17
2023/07/02 12:27:21;;;;;;;4.30;4.00;;;;;;;;;;5096286;28;20032;-19
2023/07/02 12:29:48;;;;;;;4.32;4.03;;;;;;;;;;5096786;28;20028;-17
2023/07/02 12:32:14;;;;;;;4.53;4.20;;;;;;;;;;5096159;28;20101;-19
2023/07/02 12:34:41;;;;;;;4.30;4.00;;;;;;;;;;5095498;28;20364;-17
2023/07/02 12:37:07;;;;;;;4.03;3.72;;;;;;;;;;5096097;28;20032;-20
2023/07/02 12:39:33;;;;;;;4.50;4.20;;;;;;;;;;5095957;28;20043;-20
2023/07/02 12:41:59;;;;;;;4.78;4.25;;;;;;;;;;5095982;28;20024;-21
2023/07/02 12:44:25;;;;;;;4.45;4.05;;;;;;;;;;5095935;28;20024;-18
2023/07/02 12:46:51;;;;;;;4.82;4.43;;;;;;;;;;5096431;28;20024;-19
2023/07/02 12:49:18;;;;;;;4.55;4.20;;;;;;;;;;5095857;28;20081;-16
2023/07/02 12:51:44;;;;;;;4.35;4.05;;;;;;;;;;5095791;28;20043;-18
2023/07/02 12:54:10;;;;;;;4.38;4.07;;;;;;;;;;5095523;28;20381;-18
2023/07/02 12:56:36;;;;;;;4.28;3.97;;;;;;;;;;5096005;28;20024;-19
2023/07/02 12:59:03;;;;;;;4.32;3.92;;;;;;;;;;5095668;28;20046;-19
2023/07/02 13:01:29;;;;;;;4.82;4.43;;;;;;;;;;5095580;28;20023;-20
2023/07/02 13:03:55;;;;;;;5.03;4.65;;;;;;;;;;5095463;28;20028;-20
2023/07/02 13:06:21;;;;;;;4.80;4.40;;;;;;;;;;5095791;28;20363;-21
2023/07/02 13:08:47;;;;;;;4.68;4.30;;;;;;;;;;5095529;28;20039;-21
2023/07/02 13:11:14;;;;;;;4.75;4.30;;;;;;;;;;5095482;28;20032;-20
2023/07/02 13:13:40;;;;;;;4.75;4.35;;;;;;;;;;5095307;28;20462;-19
2023/07/02 13:16:07;;;;;;;4.53;4.13;;;;;;;;;;5095265;28;20028;-17
2023/07/02 13:18:33;;;;;;;5.30;4.90;;;;;;;;;;5095314;28;20020;-19
2023/07/02 13:20:59;;;;;;;4.72;4.28;;;;;;;;;;5095312;28;20408;-21
2023/07/02 13:23:25;;;;;;;3.95;3.67;;;;;;;;;;5095445;28;20028;-19
2023/07/02 13:25:51;;;;;;;4.40;4.10;;;;;;;;;;5095230;28;20027;-19
2023/07/02 13:28:17;;;;;;;5.50;5.10;;;;;;;;;;5095754;28;20024;-20
2023/07/02 13:30:43;;;;;;;4.13;3.83;;;;;;;;;;5095100;28;20043;-19
2023/07/02 13:33:10;;;;;;;4.70;4.30;;;;;;;;;;5095001;28;20058;-19
2023/07/02 13:35:37;;;;;;;4.57;4.22;;;;;;;;;;5095047;28;20024;-21
2023/07/02 13:38:04;;;;;;;4.68;4.38;;;;;;;;;;5095259;28;20461;-18
2023/07/02 13:40:30;;;;;;;4.70;4.30;;;;;;;;;;5094995;28;20020;-21
2023/07/02 13:42:57;;;;;;;4.82;4.43;;;;;;;;;;5094926;28;20024;-16
2023/07/02 13:45:23;;;;;;;4.38;4.07;;;;;;;;;;5094552;28;20088;-17
2023/07/02 13:47:49;;;;;;;4.65;4.25;;;;;;;;;;5094891;28;20024;-19
2023/07/02 13:50:15;;;;;;;4.22;3.92;;;;;;;;;;5094842;28;20160;-19
2023/07/02 13:52:41;;;;;;;4.60;3.72;;;;;;;;;;5094546;28;20054;-21
2023/07/02 13:55:08;;;;;;;4.65;4.35;;;;;;;;;;5094726;28;20483;-24
2023/07/02 13:57:35;;;;;;;4.38;4.07;;;;;;;;;;5094773;28;20020;-20
2023/07/02 14:00:01;;;;;;;5.30;4.80;;;;;;;;;;5095068;28;20118;-19
2023/07/02 14:02:27;;;;;;;4.78;4.38;;;;;;;;;;5094593;28;20115;-18
2023/07/02 14:04:53;;;;;;;5.50;4.65;;;;;;;;;;5094746;28;20039;-20
2023/07/02 14:07:19;;;;;;;4.60;4.30;;;;;;;;;;5094956;28;20051;-20
2023/07/02 14:09:45;;;;;;;4.82;4.43;;;;;;;;;;5094947;28;20028;-19
2023/07/02 14:12:12;;;;;;;4.70;4.30;;;;;;;;;;5094579;28;20032;-19
2023/07/02 14:14:38;;;;;;;4.95;4.55;;;;;;;;;;5094841;28;20028;-20
2023/07/02 14:17:04;;;;;;;4.35;4.03;;;;;;;;;;5094574;28;20115;-20
2023/07/02 14:19:30;;;;;;;4.38;3.97;;;;;;;;;;5094622;28;20389;-19
2023/07/02 14:21:56;;;;;;;4.25;3.95;;;;;;;;;;5094790;28;20048;-19
2023/07/02 14:24:23;;;;;;;5.07;4.68;;;;;;;;;;5094578;28;20033;-20
2023/07/02 14:26:49;;;;;;;4.53;4.13;;;;;;;;;;5094790;28;20447;-19
2023/07/02 14:29:15;;;;;;;4.70;4.30;;;;;;;;;;5094804;28;20106;-18
2023/07/02 14:31:41;;;;;;;5.05;4.70;;;;;;;;;;5094455;28;20039;-17
2023/07/02 14:34:07;;;;;;;5.00;4.60;;;;;;;;;;5094575;28;20034;-20
2023/07/02 14:36:33;;;;;;;4.40;4.10;;;;;;;;;;5094686;28;20366;-19
2023/07/02 14:38:59;;;;;;;4.63;4.32;;;;;;;;;;5094373;28;20021;-20